Map

Track Data

SID SEASON NUMBER BASIN SUBBASIN NAME ISO_TIME NATURE LAT LON WMO_WIND WMO_PRES WMO_AGENCY TRACK_TYPE DIST2LAND LANDFALL IFLAG USA_AGENCY USA_ATCF_ID USA_LAT USA_LON USA_RECORD USA_STATUS USA_WIND USA_PRES USA_SSHS USA_R34_NE USA_R34_SE USA_R34_SW USA_R34_NW USA_R50_NE USA_R50_SE USA_R50_SW USA_R50_NW USA_R64_NE USA_R64_SE USA_R64_SW USA_R64_NW USA_POCI USA_ROCI USA_RMW USA_EYE TOKYO_LAT TOKYO_LON TOKYO_GRADE TOKYO_WIND TOKYO_PRES TOKYO_R50_DIR TOKYO_R50_LONG TOKYO_R50_SHORT TOKYO_R30_DIR TOKYO_R30_LONG TOKYO_R30_SHORT TOKYO_LAND CMA_LAT CMA_LON CMA_CAT CMA_WIND CMA_PRES HKO_LAT HKO_LON HKO_CAT HKO_WIND HKO_PRES NEWDELHI_LAT NEWDELHI_LON NEWDELHI_GRADE NEWDELHI_WIND NEWDELHI_PRES NEWDELHI_CI NEWDELHI_DP NEWDELHI_POCI REUNION_LAT REUNION_LON REUNION_TYPE REUNION_WIND REUNION_PRES REUNION_TNUM REUNION_CI REUNION_RMW REUNION_R34_NE REUNION_R34_SE REUNION_R34_SW REUNION_R34_NW REUNION_R50_NE REUNION_R50_SE REUNION_R50_SW REUNION_R50_NW REUNION_R64_NE REUNION_R64_SE REUNION_R64_SW REUNION_R64_NW BOM_LAT BOM_LON BOM_TYPE BOM_WIND BOM_PRES BOM_TNUM BOM_CI BOM_RMW BOM_R34_NE BOM_R34_SE BOM_R34_SW BOM_R34_NW BOM_R50_NE BOM_R50_SE BOM_R50_SW BOM_R50_NW BOM_R64_NE BOM_R64_SE BOM_R64_SW BOM_R64_NW BOM_ROCI BOM_POCI BOM_EYE BOM_POS_METHOD BOM_PRES_METHOD NADI_LAT NADI_LON NADI_CAT NADI_WIND NADI_PRES WELLINGTON_LAT WELLINGTON_LON WELLINGTON_WIND WELLINGTON_PRES DS824_LAT DS824_LON DS824_STAGE DS824_WIND DS824_PRES TD9636_LAT TD9636_LON TD9636_STAGE TD9636_WIND TD9636_PRES TD9635_LAT TD9635_LON TD9635_WIND TD9635_PRES TD9635_ROCI NEUMANN_LAT NEUMANN_LON NEUMANN_CLASS NEUMANN_WIND NEUMANN_PRES MLC_LAT MLC_LON MLC_CLASS MLC_WIND MLC_PRES USA_GUST BOM_GUST BOM_GUST_PER REUNION_GUST REUNION_GUST_PER USA_SEAHGT USA_SEARAD_NE USA_SEARAD_SE USA_SEARAD_SW USA_SEARAD_NW STORM_SPEED STORM_DIR
1960316S11083 1961 90 SI MM ANNA 1960-11-11 06:00:00 TS -11.3000 82.7000 main 1941 1937 O____O___OO_O_ jtwc_sh SH031961 -11.3000 82.7000 -1 -11.3000 82.7000 99 9.90000 -11.3000 82.7000 TC 25 -11.3000 82.7000 7 -11.3000 82.7000 TC 25 5 260
1960316S11083 1961 90 SI MM ANNA 1960-11-11 09:00:00 TS -11.3452 82.4303 main 1937 1937 P____P___PP_P_ SH031961 -11.3400 82.4700 -1 -11.3401 82.3975 99 -11.3400 82.4700 TC 25 -11.3658 82.4188 7 -11.3401 82.3950 TC 25 6 259
1960316S11083 1961 90 SI MM ANNA 1960-11-11 12:00:00 TS -11.4070 82.1460 main 1945 1944 O____O___OP_O_ jtwc_sh SH031961 -11.4000 82.2000 -1 -11.4000 82.1000 99 9.90000 -11.4000 82.2000 TC 25 -11.4351 82.1300 7 -11.4000 82.1000 TC 25 6 255
1960316S11083 1961 90 SI MM ANNA 1960-11-11 15:00:00 TS -11.4964 81.8357 main 1954 1953 P____P___PP_P_ SH031961 -11.4925 81.8650 -1 -11.4924 81.8075 99 -11.4925 81.8650 TC 25 -11.5119 81.8262 7 -11.4924 81.8150 TC 27 7 253
1960316S11083 1961 90 SI MM ANNA 1960-11-11 18:00:00 TS -11.6000 81.5000 main 1963 1962 O____O___OO_O_ jtwc_sh SH031961 -11.6000 81.5000 -1 -11.6000 81.5000 1 9.90000 -11.6000 81.5000 TC 25 -11.6000 81.5000 1 -11.6000 81.5000 TC 30 7 253
1960316S11083 1961 90 SI MM ANNA 1960-11-11 21:00:00 TS -11.7002 81.1468 main 1972 1972 P____P___PP_P_ SH031961 -11.6999 81.1575 -1 -11.7000 81.1650 1 -11.6999 81.1575 TC 25 -11.7009 81.1466 1 -11.7000 81.1075 TC 30 7 254
1960316S11083 1961 90 SI MM ANNA 1960-11-12 00:00:00 TS -11.8015 80.7745 main 1983 1983 O____O___OP_O_ jtwc_sh SH031961 -11.8000 80.8000 -1 -11.8000 80.8000 1 9.90000 -11.8000 80.8000 TC 25 -11.8075 80.7726 1 -11.8000 80.7000 TC 30 8 254
1960316S11083 1961 90 SI MM ANNA 1960-11-12 03:00:00 TS -11.9080 80.3860 main 1994 1994 P____P___PP_P_ SH031961 -11.9075 80.4000 -1 -11.9075 80.4000 1 -11.9075 80.4000 TC 25 -11.9103 80.3873 1 -11.9074 80.3425 TC 30 8 255
1960316S11083 1961 90 SI MM ANNA 1960-11-12 06:00:00 TS -12.0000 80.0000 reunion main 2006 2006 O____O___OO_O_ jtwc_sh SH031961 -12.0000 80.0000 -1 -12.0000 80.0000 1 9.90000 -12.0000 80.0000 TC 25 -12.0000 80.0000 1 -12.0000 80.0000 TC 30 7 258
1960316S11083 1961 90 SI MM ANNA 1960-11-12 09:00:00 TS -12.0604 79.6464 main 2019 2019 P____P___PP_P_ SH031961 -12.0574 79.6499 -1 -12.0574 79.6499 1 -12.0574 79.6499 TC 25 -12.0723 79.6249 1 -12.0574 79.6575 TC 32 7 261
1960316S11083 1961 90 SI MM ANNA 1960-11-12 12:00:00 TS -12.1060 79.2900 reunion main 2021 2021 O____O___OP_O_ jtwc_sh SH031961 -12.1000 79.3000 -1 -12.1000 79.3000 1 9.90000 -12.1000 79.3000 TC 25 -12.1298 79.2500 1 -12.1000 79.3000 TC 35 7 262
1960316S11083 1961 90 SI MM ANNA 1960-11-12 15:00:00 TS -12.1605 78.8965 main 2036 2036 P____P___PP_P_ SH031961 -12.1575 78.9000 -1 -12.1575 78.9075 1 -12.1575 78.9000 TC 25 -12.1723 78.8750 1 -12.1575 78.9000 TC 35 8 263
1960316S11083 1961 90 SI MM ANNA 1960-11-12 18:00:00 TS -12.2000 78.5000 reunion main 2041 2041 O____O___OO_O_ jtwc_sh SH031961 -12.2000 78.5000 -1 -12.2000 78.5000 1 9.90000 -12.2000 78.5000 TC 25 -12.2000 78.5000 1 -12.2000 78.5000 TC 35 7 266
1960316S11083 1961 90 SI MM ANNA 1960-11-12 21:00:00 TS -12.2060 78.1577 main 2045 2045 P____P___PP_P_ SH031961 -12.2074 78.1500 -1 -12.2075 78.0925 1 -12.2074 78.1500 TC 25 -12.2002 78.2462 1 -12.2074 78.1500 TC 32 7 270
1960316S11083 1961 90 SI MM ANNA 1960-11-13 00:00:00 TS -12.1978 77.8148 reunion main 2051 2051 O____O___OP_O_ jtwc_sh SH031961 -12.2000 77.8000 -1 -12.2000 77.7000 1 9.90000 -12.2000 77.8000 TC 25 -12.1892 77.9739 1 -12.2000 77.8000 TC 30 6 271
1960316S11083 1961 90 SI MM ANNA 1960-11-13 03:00:00 TS -12.1903 77.4983 main 2056 2056 P____P___PP_P_ SH031961 -12.1920 77.4824 -1 -12.1920 77.4174 1 -12.1920 77.4824 TC 25 -12.1837 77.5897 1 -12.1917 77.5198 TC 30 8 270
1960316S11083 1961 90 SI MM ANNA 1960-11-13 06:00:00 TS -12.2000 77.0000 reunion main 2066 2066 O____O___OO_O_ jtwc_sh SH031961 -12.2000 77.0000 -1 -12.2000 77.0000 1 9.90000 -12.2000 77.0000 TC 25 -12.2000 77.0000 1 -12.2000 77.0000 TC 30 13 268
1960316S11083 1961 90 SI MM ANNA 1960-11-13 09:00:00 TS -12.2427 76.1756 main 2085 2059 P____P___PP_P_ SH031961 -12.2345 76.2422 -1 -12.2343 76.3072 1 -12.2345 76.2422 TC 25 -12.2743 76.1313 1 -12.2357 75.9549 TC 30 19 267
1960316S11083 1961 90 SI MM ANNA 1960-11-13 12:00:00 TS -12.3131 75.0900 reunion main 2050 1930 O____O___OP_O_ jtwc_sh SH031961 -12.3000 75.2000 -1 -12.3000 75.3000 1 9.90000 -12.3000 75.2000 TC 25 -12.3653 75.0499 1 -12.3000 74.7000 TC 30 23 266
1960316S11083 1961 90 SI MM ANNA 1960-11-13 15:00:00 TS -12.4172 73.8534 main 1930 1802 P____P___PP_P_ SH031961 -12.4077 73.9177 -1 -12.4155 73.9753 1 -12.4077 73.9177 TC 25 -12.4485 73.8186 1 -12.4064 73.6376 TC 30 25 266
1960316S11083 1961 90 SI MM ANNA 1960-11-13 18:00:00 TS -12.5000 72.5000 reunion main 1792 1672 O____O___OO_O_ jtwc_sh SH031961 -12.5000 72.5000 -1 -12.5000 72.5000 1 9.90000 -12.5000 72.5000 TC 25 -12.5000 72.5000 1 -12.5000 72.5000 TC 30 26 268
1960316S11083 1961 90 SI MM ANNA 1960-11-13 21:00:00 TS -12.5125 71.1498 main 1662 1554 P____P___PP_P_ SH031961 -12.5292 71.1575 -1 -12.4716 71.1497 1 -12.5292 71.1575 TC 25 -12.5026 71.1470 1 -12.5300 71.1374 TC 30 27 271
1960316S11083 1961 90 SI MM ANNA 1960-11-14 00:00:00 TS -12.4724 69.7750 reunion main 1545 1438 O____O___OP_O_ jtwc_sh SH031961 -12.5000 69.8000 -1 -12.4000 69.8000 1 9.90000 -12.5000 69.8000 TC 25 -12.4622 69.7749 1 -12.5000 69.7000 TC 30 27 272
1960316S11083 1961 90 SI MM ANNA 1960-11-14 03:00:00 TS -12.3967 68.3894 main 1430 1329 P____P___PP_P_ SH031961 -12.4165 68.4098 -1 -12.3441 68.4127 1 -12.4165 68.4098 TC 25 -12.3906 68.3901 1 -12.4159 68.3249 TC 30 27 274
1960316S11083 1961 90 SI MM ANNA 1960-11-14 06:00:00 TS -12.3000 67.0000 reunion main 1321 O____O___OO_O_ jtwc_sh SH031961 -12.3000 67.0000 -1 -12.3000 67.0000 1 9.90000 -12.3000 67.0000 TC 25 -12.3000 67.0000 1 -12.3000 67.0000 TC 30 27 274

About IBTrACS Database

This database is a web-friendly format of International Best Track Archive for Climate Stewardship (IBTrACS), a global best track data archive curated by NOAA dating back to 1842.

Updated: 2021-10-21